Terminal Aerodrome Forecast
Issued by NWS Shreveport, LA

Home | Current Version | Previous Version | Text Only | Print | Product List | Glossary On
Versions: 1 2 3 4 5 6 7 8 9 10 11 12 13 14 15 16 17 18 19
000
FTUS44 KSHV 032300
TAFLFK
TAF
KLFK 032333Z 0400/0424 16010KT P6SM SCT030 BKN060
     FM040600 16008KT 3SM BR OVC004
      TEMPO 0410/0414 1/2SM FG VV001
     FM041800 19008KT P6SM VCTS BKN020CB
      TEMPO 0420/0424 3SM TSRA BR OVC010CB=

USA.gov is the U.S. government's official web portal to all federal, state and local government web resources and services.